sensor_id;sensor_type;location;lat;lon;timestamp;P1;durP1;ratioP1;P2;durP2;ratioP2
41141;SDS011;26882;0.000;0.000;2022-09-09T00:02:20;5.20;;;2.90;;
41141;SDS011;26882;0.000;0.000;2022-09-09T00:05:00;5.70;;;3.00;;
41141;SDS011;26882;0.000;0.000;2022-09-09T00:07:42;5.60;;;2.90;;
41141;SDS011;26882;0.000;0.000;2022-09-09T00:10:21;5.50;;;3.40;;
41141;SDS011;26882;0.000;0.000;2022-09-09T00:13:00;7.60;;;3.20;;
41141;SDS011;26882;0.000;0.000;2022-09-09T00:15:38;5.20;;;3.00;;
41141;SDS011;26882;0.000;0.000;2022-09-09T00:18:20;5.90;;;3.50;;
41141;SDS011;26882;0.000;0.000;2022-09-09T00:21:00;5.80;;;3.00;;
41141;SDS011;26882;0.000;0.000;2022-09-09T00:23:39;5.60;;;3.10;;
41141;SDS011;26882;0.000;0.000;2022-09-09T00:26:18;5.10;;;3.00;;
41141;SDS011;26882;0.000;0.000;2022-09-09T00:28:55;5.40;;;3.30;;
41141;SDS011;26882;0.000;0.000;2022-09-09T00:31:29;5.30;;;3.10;;
41141;SDS011;26882;0.000;0.000;2022-09-09T00:36:33;5.30;;;3.10;;
41141;SDS011;26882;0.000;0.000;2022-09-09T00:39:09;6.40;;;3.50;;
41141;SDS011;26882;0.000;0.000;2022-09-09T00:41:50;5.50;;;2.90;;
41141;SDS011;26882;0.000;0.000;2022-09-09T00:44:30;6.20;;;4.10;;
41141;SDS011;26882;0.000;0.000;2022-09-09T00:47:15;6.70;;;3.20;;
41141;SDS011;26882;0.000;0.000;2022-09-09T00:49:56;5.80;;;3.70;;
41141;SDS011;26882;0.000;0.000;2022-09-09T00:52:35;5.40;;;3.60;;
41141;SDS011;26882;0.000;0.000;2022-09-09T00:55:12;5.90;;;3.60;;
41141;SDS011;26882;0.000;0.000;2022-09-09T00:57:47;5.90;;;3.40;;
41141;SDS011;26882;0.000;0.000;2022-09-09T01:00:24;5.90;;;3.70;;
41141;SDS011;26882;0.000;0.000;2022-09-09T01:03:02;7.90;;;3.20;;
41141;SDS011;26882;0.000;0.000;2022-09-09T01:05:42;5.60;;;3.20;;
41141;SDS011;26882;0.000;0.000;2022-09-09T01:08:31;6.00;;;3.70;;
41141;SDS011;26882;0.000;0.000;2022-09-09T01:11:14;7.40;;;3.60;;
41141;SDS011;26882;0.000;0.000;2022-09-09T01:13:47;5.50;;;3.30;;
41141;SDS011;26882;0.000;0.000;2022-09-09T01:16:20;5.70;;;3.60;;
41141;SDS011;26882;0.000;0.000;2022-09-09T01:18:53;6.80;;;3.80;;
41141;SDS011;26882;0.000;0.000;2022-09-09T01:21:32;6.40;;;3.60;;
41141;SDS011;26882;0.000;0.000;2022-09-09T01:24:16;7.90;;;3.70;;
41141;SDS011;26882;0.000;0.000;2022-09-09T01:26:50;5.90;;;3.60;;
41141;SDS011;26882;0.000;0.000;2022-09-09T01:29:22;6.10;;;4.00;;
41141;SDS011;26882;0.000;0.000;2022-09-09T01:31:58;6.00;;;3.70;;
41141;SDS011;26882;0.000;0.000;2022-09-09T01:34:33;5.80;;;3.90;;
41141;SDS011;26882;0.000;0.000;2022-09-09T01:37:05;7.30;;;3.60;;
41141;SDS011;26882;0.000;0.000;2022-09-09T01:39:37;5.70;;;3.50;;
41141;SDS011;26882;0.000;0.000;2022-09-09T01:42:12;6.00;;;3.80;;
41141;SDS011;26882;0.000;0.000;2022-09-09T01:44:44;6.30;;;3.90;;
41141;SDS011;26882;0.000;0.000;2022-09-09T01:47:15;5.70;;;3.90;;
41141;SDS011;26882;0.000;0.000;2022-09-09T01:49:47;6.30;;;3.50;;
41141;SDS011;26882;0.000;0.000;2022-09-09T01:52:17;5.70;;;3.60;;
41141;SDS011;26882;0.000;0.000;2022-09-09T01:54:48;6.40;;;3.60;;
41141;SDS011;26882;0.000;0.000;2022-09-09T01:57:24;6.20;;;3.90;;
41141;SDS011;26882;0.000;0.000;2022-09-09T02:00:04;6.50;;;3.80;;
41141;SDS011;26882;0.000;0.000;2022-09-09T02:02:42;5.90;;;3.90;;
41141;SDS011;26882;0.000;0.000;2022-09-09T02:05:21;7.20;;;4.10;;
41141;SDS011;26882;0.000;0.000;2022-09-09T02:07:59;7.50;;;4.40;;
41141;SDS011;26882;0.000;0.000;2022-09-09T02:10:35;6.30;;;3.50;;
41141;SDS011;26882;0.000;0.000;2022-09-09T02:13:11;6.90;;;3.90;;
41141;SDS011;26882;0.000;0.000;2022-09-09T02:15:47;6.00;;;3.80;;
41141;SDS011;26882;0.000;0.000;2022-09-09T02:18:24;6.50;;;3.90;;
41141;SDS011;26882;0.000;0.000;2022-09-09T02:20:57;6.30;;;4.10;;
41141;SDS011;26882;0.000;0.000;2022-09-09T02:23:29;6.90;;;4.00;;
41141;SDS011;26882;0.000;0.000;2022-09-09T02:26:01;7.40;;;3.90;;
41141;SDS011;26882;0.000;0.000;2022-09-09T02:28:33;7.10;;;4.00;;
41141;SDS011;26882;0.000;0.000;2022-09-09T02:31:08;6.80;;;4.00;;
41141;SDS011;26882;0.000;0.000;2022-09-09T02:33:43;5.50;;;3.90;;
41141;SDS011;26882;0.000;0.000;2022-09-09T02:36:16;6.40;;;4.00;;
41141;SDS011;26882;0.000;0.000;2022-09-09T02:38:48;6.80;;;4.50;;
41141;SDS011;26882;0.000;0.000;2022-09-09T02:41:24;6.80;;;4.30;;
41141;SDS011;26882;0.000;0.000;2022-09-09T02:43:59;6.20;;;4.10;;
41141;SDS011;26882;0.000;0.000;2022-09-09T02:46:40;7.00;;;4.30;;
41141;SDS011;26882;0.000;0.000;2022-09-09T02:49:17;6.90;;;4.30;;
41141;SDS011;26882;0.000;0.000;2022-09-09T02:51:54;7.70;;;4.40;;
41141;SDS011;26882;0.000;0.000;2022-09-09T02:54:29;7.00;;;4.30;;
41141;SDS011;26882;0.000;0.000;2022-09-09T02:57:05;6.80;;;4.20;;
41141;SDS011;26882;0.000;0.000;2022-09-09T02:59:38;6.30;;;4.00;;
41141;SDS011;26882;0.000;0.000;2022-09-09T03:02:09;7.20;;;4.40;;
41141;SDS011;26882;0.000;0.000;2022-09-09T03:04:40;7.40;;;4.30;;
41141;SDS011;26882;0.000;0.000;2022-09-09T03:07:13;6.60;;;4.20;;
41141;SDS011;26882;0.000;0.000;2022-09-09T03:09:48;6.20;;;4.10;;
41141;SDS011;26882;0.000;0.000;2022-09-09T03:12:19;7.40;;;4.50;;
41141;SDS011;26882;0.000;0.000;2022-09-09T03:14:50;6.30;;;4.00;;
41141;SDS011;26882;0.000;0.000;2022-09-09T03:17:21;6.20;;;4.30;;
41141;SDS011;26882;0.000;0.000;2022-09-09T03:19:51;6.60;;;4.10;;
41141;SDS011;26882;0.000;0.000;2022-09-09T03:22:23;6.70;;;4.20;;
41141;SDS011;26882;0.000;0.000;2022-09-09T03:24:54;7.30;;;4.30;;
41141;SDS011;26882;0.000;0.000;2022-09-09T03:27:25;6.70;;;4.10;;
41141;SDS011;26882;0.000;0.000;2022-09-09T03:29:56;6.90;;;4.00;;
41141;SDS011;26882;0.000;0.000;2022-09-09T03:32:29;6.10;;;4.10;;
41141;SDS011;26882;0.000;0.000;2022-09-09T03:35:00;6.90;;;4.10;;
41141;SDS011;26882;0.000;0.000;2022-09-09T03:37:31;7.00;;;4.20;;
41141;SDS011;26882;0.000;0.000;2022-09-09T03:40:02;6.20;;;4.10;;
41141;SDS011;26882;0.000;0.000;2022-09-09T03:42:33;5.70;;;3.90;;
41141;SDS011;26882;0.000;0.000;2022-09-09T03:45:10;6.80;;;4.30;;
41141;SDS011;26882;0.000;0.000;2022-09-09T03:47:41;6.50;;;4.10;;
41141;SDS011;26882;0.000;0.000;2022-09-09T03:50:11;6.70;;;4.20;;
41141;SDS011;26882;0.000;0.000;2022-09-09T03:52:45;5.70;;;3.90;;
41141;SDS011;26882;0.000;0.000;2022-09-09T03:55:16;6.60;;;4.10;;
41141;SDS011;26882;0.000;0.000;2022-09-09T03:57:47;7.00;;;4.70;;
41141;SDS011;26882;0.000;0.000;2022-09-09T04:00:17;6.30;;;4.40;;
41141;SDS011;26882;0.000;0.000;2022-09-09T04:02:48;6.90;;;4.00;;
41141;SDS011;26882;0.000;0.000;2022-09-09T04:05:19;6.80;;;4.40;;
41141;SDS011;26882;0.000;0.000;2022-09-09T04:07:49;6.80;;;4.40;;
41141;SDS011;26882;0.000;0.000;2022-09-09T04:10:20;6.20;;;4.00;;
41141;SDS011;26882;0.000;0.000;2022-09-09T04:12:51;6.40;;;4.10;;
41141;SDS011;26882;0.000;0.000;2022-09-09T04:15:22;6.00;;;4.20;;
41141;SDS011;26882;0.000;0.000;2022-09-09T04:17:52;6.30;;;3.80;;
41141;SDS011;26882;0.000;0.000;2022-09-09T04:20:23;6.80;;;4.20;;
41141;SDS011;26882;0.000;0.000;2022-09-09T04:22:53;6.80;;;4.10;;
41141;SDS011;26882;0.000;0.000;2022-09-09T04:25:24;6.60;;;3.90;;
41141;SDS011;26882;0.000;0.000;2022-09-09T04:27:58;6.80;;;4.10;;
41141;SDS011;26882;0.000;0.000;2022-09-09T04:30:29;6.30;;;4.20;;
41141;SDS011;26882;0.000;0.000;2022-09-09T04:33:00;7.50;;;4.10;;
41141;SDS011;26882;0.000;0.000;2022-09-09T04:35:30;6.80;;;4.00;;
41141;SDS011;26882;0.000;0.000;2022-09-09T04:38:02;7.50;;;4.00;;
41141;SDS011;26882;0.000;0.000;2022-09-09T04:40:34;6.70;;;4.10;;
41141;SDS011;26882;0.000;0.000;2022-09-09T04:43:05;6.50;;;4.10;;
41141;SDS011;26882;0.000;0.000;2022-09-09T04:45:36;6.70;;;3.90;;
41141;SDS011;26882;0.000;0.000;2022-09-09T04:48:09;6.30;;;3.60;;
41141;SDS011;26882;0.000;0.000;2022-09-09T04:50:40;6.90;;;4.20;;
41141;SDS011;26882;0.000;0.000;2022-09-09T04:53:10;6.20;;;3.80;;
41141;SDS011;26882;0.000;0.000;2022-09-09T04:55:41;6.10;;;4.00;;
41141;SDS011;26882;0.000;0.000;2022-09-09T04:58:12;7.00;;;4.00;;
41141;SDS011;26882;0.000;0.000;2022-09-09T05:00:42;7.00;;;4.00;;
41141;SDS011;26882;0.000;0.000;2022-09-09T05:03:13;6.20;;;3.90;;
41141;SDS011;26882;0.000;0.000;2022-09-09T05:05:44;6.10;;;3.70;;
41141;SDS011;26882;0.000;0.000;2022-09-09T05:08:15;7.90;;;4.10;;
41141;SDS011;26882;0.000;0.000;2022-09-09T05:10:49;6.00;;;4.00;;
41141;SDS011;26882;0.000;0.000;2022-09-09T05:13:20;6.00;;;3.90;;
41141;SDS011;26882;0.000;0.000;2022-09-09T05:15:54;7.70;;;4.30;;
41141;SDS011;26882;0.000;0.000;2022-09-09T05:18:25;7.20;;;4.10;;
41141;SDS011;26882;0.000;0.000;2022-09-09T05:21:01;6.60;;;3.70;;
41141;SDS011;26882;0.000;0.000;2022-09-09T05:23:31;6.90;;;4.00;;
41141;SDS011;26882;0.000;0.000;2022-09-09T05:26:03;6.70;;;4.00;;
41141;SDS011;26882;0.000;0.000;2022-09-09T05:28:35;6.60;;;3.90;;
41141;SDS011;26882;0.000;0.000;2022-09-09T05:31:07;6.50;;;3.80;;
41141;SDS011;26882;0.000;0.000;2022-09-09T05:33:39;6.00;;;3.70;;
41141;SDS011;26882;0.000;0.000;2022-09-09T05:36:12;6.20;;;3.60;;
41141;SDS011;26882;0.000;0.000;2022-09-09T05:38:44;6.60;;;3.40;;
41141;SDS011;26882;0.000;0.000;2022-09-09T05:41:16;7.40;;;4.10;;
41141;SDS011;26882;0.000;0.000;2022-09-09T05:43:49;6.00;;;3.50;;
41141;SDS011;26882;0.000;0.000;2022-09-09T05:46:22;7.40;;;3.60;;
41141;SDS011;26882;0.000;0.000;2022-09-09T05:48:53;7.50;;;3.60;;
41141;SDS011;26882;0.000;0.000;2022-09-09T05:51:26;6.10;;;3.60;;
41141;SDS011;26882;0.000;0.000;2022-09-09T05:53:58;6.60;;;3.30;;
41141;SDS011;26882;0.000;0.000;2022-09-09T05:56:29;6.10;;;3.40;;
41141;SDS011;26882;0.000;0.000;2022-09-09T05:59:01;5.60;;;3.30;;
41141;SDS011;26882;0.000;0.000;2022-09-09T06:01:35;6.20;;;3.40;;
41141;SDS011;26882;0.000;0.000;2022-09-09T06:04:10;6.50;;;3.50;;
41141;SDS011;26882;0.000;0.000;2022-09-09T06:06:42;6.10;;;3.40;;
41141;SDS011;26882;0.000;0.000;2022-09-09T06:09:13;5.10;;;3.00;;
41141;SDS011;26882;0.000;0.000;2022-09-09T06:11:45;8.30;;;3.50;;
41141;SDS011;26882;0.000;0.000;2022-09-09T06:14:16;6.20;;;3.70;;
41141;SDS011;26882;0.000;0.000;2022-09-09T06:16:47;5.90;;;3.80;;
41141;SDS011;26882;0.000;0.000;2022-09-09T06:19:19;6.10;;;3.40;;
41141;SDS011;26882;0.000;0.000;2022-09-09T06:21:50;7.40;;;3.70;;
41141;SDS011;26882;0.000;0.000;2022-09-09T06:24:21;6.40;;;3.50;;
41141;SDS011;26882;0.000;0.000;2022-09-09T06:26:52;9.00;;;4.00;;
41141;SDS011;26882;0.000;0.000;2022-09-09T06:29:24;9.30;;;3.90;;
41141;SDS011;26882;0.000;0.000;2022-09-09T06:31:57;6.50;;;3.60;;
41141;SDS011;26882;0.000;0.000;2022-09-09T06:34:29;6.00;;;3.50;;
41141;SDS011;26882;0.000;0.000;2022-09-09T06:37:01;7.40;;;3.60;;
41141;SDS011;26882;0.000;0.000;2022-09-09T06:39:32;7.70;;;3.70;;
41141;SDS011;26882;0.000;0.000;2022-09-09T06:42:03;7.00;;;3.60;;
41141;SDS011;26882;0.000;0.000;2022-09-09T06:44:34;5.90;;;3.50;;
41141;SDS011;26882;0.000;0.000;2022-09-09T06:47:05;5.90;;;3.30;;
41141;SDS011;26882;0.000;0.000;2022-09-09T06:49:35;7.10;;;3.50;;
41141;SDS011;26882;0.000;0.000;2022-09-09T06:52:09;7.70;;;3.30;;
41141;SDS011;26882;0.000;0.000;2022-09-09T06:54:39;5.90;;;3.50;;
41141;SDS011;26882;0.000;0.000;2022-09-09T06:57:11;9.00;;;4.30;;
41141;SDS011;26882;0.000;0.000;2022-09-09T06:59:41;6.80;;;4.20;;
41141;SDS011;26882;0.000;0.000;2022-09-09T07:03:13;12.10;;;4.40;;
41141;SDS011;26882;0.000;0.000;2022-09-09T07:05:44;11.10;;;4.10;;
41141;SDS011;26882;0.000;0.000;2022-09-09T07:08:23;9.00;;;3.50;;
41141;SDS011;26882;0.000;0.000;2022-09-09T07:10:55;8.90;;;3.70;;
41141;SDS011;26882;0.000;0.000;2022-09-09T07:13:33;10.70;;;4.10;;
41141;SDS011;26882;0.000;0.000;2022-09-09T07:16:07;8.40;;;4.00;;
41141;SDS011;26882;0.000;0.000;2022-09-09T07:18:38;8.10;;;4.00;;
41141;SDS011;26882;0.000;0.000;2022-09-09T07:21:13;7.30;;;4.00;;
41141;SDS011;26882;0.000;0.000;2022-09-09T07:23:45;9.00;;;4.40;;
41141;SDS011;26882;0.000;0.000;2022-09-09T07:26:17;10.20;;;3.90;;
41141;SDS011;26882;0.000;0.000;2022-09-09T07:28:49;7.70;;;3.30;;
41141;SDS011;26882;0.000;0.000;2022-09-09T07:31:24;8.80;;;4.10;;
41141;SDS011;26882;0.000;0.000;2022-09-09T07:33:56;8.60;;;4.20;;
41141;SDS011;26882;0.000;0.000;2022-09-09T07:36:30;7.70;;;4.10;;
41141;SDS011;26882;0.000;0.000;2022-09-09T07:39:06;11.40;;;5.00;;
41141;SDS011;26882;0.000;0.000;2022-09-09T07:41:38;8.10;;;4.20;;
41141;SDS011;26882;0.000;0.000;2022-09-09T07:44:10;9.60;;;4.20;;
41141;SDS011;26882;0.000;0.000;2022-09-09T07:46:43;7.80;;;4.00;;
41141;SDS011;26882;0.000;0.000;2022-09-09T07:49:14;6.40;;;4.00;;
41141;SDS011;26882;0.000;0.000;2022-09-09T07:51:47;8.50;;;3.70;;
41141;SDS011;26882;0.000;0.000;2022-09-09T07:54:19;7.60;;;3.50;;
41141;SDS011;26882;0.000;0.000;2022-09-09T07:56:55;8.40;;;3.90;;
41141;SDS011;26882;0.000;0.000;2022-09-09T07:59:27;7.40;;;4.00;;
41141;SDS011;26882;0.000;0.000;2022-09-09T08:01:59;8.70;;;3.70;;
41141;SDS011;26882;0.000;0.000;2022-09-09T08:04:33;8.20;;;4.00;;
41141;SDS011;26882;0.000;0.000;2022-09-09T08:07:06;6.80;;;3.90;;
41141;SDS011;26882;0.000;0.000;2022-09-09T08:09:40;7.70;;;3.60;;
41141;SDS011;26882;0.000;0.000;2022-09-09T08:12:13;8.20;;;4.10;;
41141;SDS011;26882;0.000;0.000;2022-09-09T08:14:44;6.40;;;3.60;;
41141;SDS011;26882;0.000;0.000;2022-09-09T08:17:14;8.60;;;3.80;;
41141;SDS011;26882;0.000;0.000;2022-09-09T08:19:45;6.50;;;3.80;;
41141;SDS011;26882;0.000;0.000;2022-09-09T08:22:15;6.80;;;4.30;;
41141;SDS011;26882;0.000;0.000;2022-09-09T08:24:46;7.00;;;3.80;;
41141;SDS011;26882;0.000;0.000;2022-09-09T08:27:16;6.90;;;4.10;;
41141;SDS011;26882;0.000;0.000;2022-09-09T08:29:47;6.70;;;3.70;;
41141;SDS011;26882;0.000;0.000;2022-09-09T08:32:17;7.60;;;4.10;;
41141;SDS011;26882;0.000;0.000;2022-09-09T08:34:48;6.50;;;3.90;;
41141;SDS011;26882;0.000;0.000;2022-09-09T08:37:21;7.90;;;3.80;;
41141;SDS011;26882;0.000;0.000;2022-09-09T08:39:55;6.70;;;3.70;;
41141;SDS011;26882;0.000;0.000;2022-09-09T08:42:39;6.50;;;3.70;;
41141;SDS011;26882;0.000;0.000;2022-09-09T08:45:25;7.50;;;4.10;;
41141;SDS011;26882;0.000;0.000;2022-09-09T08:48:22;6.90;;;3.80;;
41141;SDS011;26882;0.000;0.000;2022-09-09T08:51:01;6.70;;;3.80;;
41141;SDS011;26882;0.000;0.000;2022-09-09T08:53:40;7.00;;;4.20;;
41141;SDS011;26882;0.000;0.000;2022-09-09T08:56:16;7.00;;;3.70;;
41141;SDS011;26882;0.000;0.000;2022-09-09T08:58:49;7.30;;;4.70;;
41141;SDS011;26882;0.000;0.000;2022-09-09T09:01:33;9.00;;;4.20;;
41141;SDS011;26882;0.000;0.000;2022-09-09T09:04:21;6.30;;;3.90;;
41141;SDS011;26882;0.000;0.000;2022-09-09T09:07:07;7.00;;;4.00;;
41141;SDS011;26882;0.000;0.000;2022-09-09T09:09:49;6.30;;;3.80;;
41141;SDS011;26882;0.000;0.000;2022-09-09T09:12:25;6.70;;;3.90;;
41141;SDS011;26882;0.000;0.000;2022-09-09T09:15:00;5.50;;;3.80;;
41141;SDS011;26882;0.000;0.000;2022-09-09T09:17:32;6.00;;;4.60;;
41141;SDS011;26882;0.000;0.000;2022-09-09T09:20:13;6.70;;;4.20;;
41141;SDS011;26882;0.000;0.000;2022-09-09T09:22:50;7.60;;;4.10;;
41141;SDS011;26882;0.000;0.000;2022-09-09T09:25:25;7.00;;;4.20;;
41141;SDS011;26882;0.000;0.000;2022-09-09T09:28:10;6.70;;;3.80;;
41141;SDS011;26882;0.000;0.000;2022-09-09T09:30:52;6.80;;;4.30;;
41141;SDS011;26882;0.000;0.000;2022-09-09T09:33:26;6.00;;;3.90;;
41141;SDS011;26882;0.000;0.000;2022-09-09T09:36:04;7.20;;;4.40;;
41141;SDS011;26882;0.000;0.000;2022-09-09T09:38:50;6.90;;;4.20;;
41141;SDS011;26882;0.000;0.000;2022-09-09T09:41:32;6.50;;;4.30;;
41141;SDS011;26882;0.000;0.000;2022-09-09T09:44:05;6.90;;;4.40;;
41141;SDS011;26882;0.000;0.000;2022-09-09T09:46:36;6.10;;;4.20;;
41141;SDS011;26882;0.000;0.000;2022-09-09T09:49:10;6.20;;;4.10;;
41141;SDS011;26882;0.000;0.000;2022-09-09T09:51:43;6.30;;;4.50;;
41141;SDS011;26882;0.000;0.000;2022-09-09T09:54:21;5.90;;;4.30;;
41141;SDS011;26882;0.000;0.000;2022-09-09T09:56:53;6.70;;;4.20;;
41141;SDS011;26882;0.000;0.000;2022-09-09T09:59:35;5.70;;;4.00;;
41141;SDS011;26882;0.000;0.000;2022-09-09T10:02:15;6.20;;;4.20;;
41141;SDS011;26882;0.000;0.000;2022-09-09T10:04:59;6.20;;;3.90;;
41141;SDS011;26882;0.000;0.000;2022-09-09T10:09:59;7.20;;;4.30;;
41141;SDS011;26882;0.000;0.000;2022-09-09T10:12:41;6.60;;;4.70;;
41141;SDS011;26882;0.000;0.000;2022-09-09T10:15:26;7.90;;;4.20;;
41141;SDS011;26882;0.000;0.000;2022-09-09T10:18:07;6.40;;;4.50;;
41141;SDS011;26882;0.000;0.000;2022-09-09T10:20:49;7.70;;;4.70;;
41141;SDS011;26882;0.000;0.000;2022-09-09T10:23:35;7.00;;;4.70;;
41141;SDS011;26882;0.000;0.000;2022-09-09T10:26:25;7.00;;;4.60;;
41141;SDS011;26882;0.000;0.000;2022-09-09T10:29:12;6.20;;;4.80;;
41141;SDS011;26882;0.000;0.000;2022-09-09T10:31:57;6.60;;;4.40;;
41141;SDS011;26882;0.000;0.000;2022-09-09T10:34:46;6.90;;;4.80;;
41141;SDS011;26882;0.000;0.000;2022-09-09T10:37:33;6.50;;;4.80;;
41141;SDS011;26882;0.000;0.000;2022-09-09T10:40:23;6.50;;;4.90;;
41141;SDS011;26882;0.000;0.000;2022-09-09T10:43:01;5.80;;;4.20;;
41141;SDS011;26882;0.000;0.000;2022-09-09T10:45:42;6.90;;;4.80;;
41141;SDS011;26882;0.000;0.000;2022-09-09T10:48:24;6.30;;;4.70;;
41141;SDS011;26882;0.000;0.000;2022-09-09T10:51:15;7.50;;;4.80;;
41141;SDS011;26882;0.000;0.000;2022-09-09T10:53:57;6.10;;;4.90;;
41141;SDS011;26882;0.000;0.000;2022-09-09T10:59:06;6.80;;;4.70;;
41141;SDS011;26882;0.000;0.000;2022-09-09T11:01:43;7.00;;;4.90;;
41141;SDS011;26882;0.000;0.000;2022-09-09T11:04:17;6.60;;;5.20;;
41141;SDS011;26882;0.000;0.000;2022-09-09T11:06:53;7.50;;;5.10;;
41141;SDS011;26882;0.000;0.000;2022-09-09T11:09:28;6.90;;;4.80;;
41141;SDS011;26882;0.000;0.000;2022-09-09T11:12:02;6.80;;;5.20;;
41141;SDS011;26882;0.000;0.000;2022-09-09T11:14:36;7.50;;;4.90;;
41141;SDS011;26882;0.000;0.000;2022-09-09T11:17:14;6.30;;;4.80;;
41141;SDS011;26882;0.000;0.000;2022-09-09T11:19:47;7.10;;;4.80;;
41141;SDS011;26882;0.000;0.000;2022-09-09T11:22:26;7.60;;;5.80;;
41141;SDS011;26882;0.000;0.000;2022-09-09T11:25:01;7.10;;;5.40;;
41141;SDS011;26882;0.000;0.000;2022-09-09T11:27:40;7.90;;;5.30;;
41141;SDS011;26882;0.000;0.000;2022-09-09T11:30:22;6.70;;;5.00;;
41141;SDS011;26882;0.000;0.000;2022-09-09T11:33:21;7.30;;;5.20;;
41141;SDS011;26882;0.000;0.000;2022-09-09T11:36:04;8.10;;;5.20;;
41141;SDS011;26882;0.000;0.000;2022-09-09T11:38:44;6.40;;;4.90;;
41141;SDS011;26882;0.000;0.000;2022-09-09T11:41:17;6.90;;;5.20;;
41141;SDS011;26882;0.000;0.000;2022-09-09T11:43:49;6.90;;;5.40;;
41141;SDS011;26882;0.000;0.000;2022-09-09T11:46:31;7.40;;;5.40;;
41141;SDS011;26882;0.000;0.000;2022-09-09T11:51:36;8.10;;;6.10;;
41141;SDS011;26882;0.000;0.000;2022-09-09T11:54:27;8.30;;;5.70;;
41141;SDS011;26882;0.000;0.000;2022-09-09T11:56:59;7.80;;;6.00;;
41141;SDS011;26882;0.000;0.000;2022-09-09T11:59:32;8.00;;;6.10;;
41141;SDS011;26882;0.000;0.000;2022-09-09T12:02:09;8.60;;;5.70;;
41141;SDS011;26882;0.000;0.000;2022-09-09T12:04:46;8.00;;;5.90;;
41141;SDS011;26882;0.000;0.000;2022-09-09T12:07:33;7.40;;;5.70;;
41141;SDS011;26882;0.000;0.000;2022-09-09T12:10:25;9.80;;;6.10;;
41141;SDS011;26882;0.000;0.000;2022-09-09T12:13:09;8.60;;;5.70;;
41141;SDS011;26882;0.000;0.000;2022-09-09T12:15:50;8.20;;;5.50;;
41141;SDS011;26882;0.000;0.000;2022-09-09T12:18:25;7.90;;;6.10;;
41141;SDS011;26882;0.000;0.000;2022-09-09T12:21:12;8.60;;;6.20;;
41141;SDS011;26882;0.000;0.000;2022-09-09T12:23:50;8.10;;;6.00;;
41141;SDS011;26882;0.000;0.000;2022-09-09T12:26:31;8.20;;;6.20;;
41141;SDS011;26882;0.000;0.000;2022-09-09T12:29:14;9.10;;;6.40;;
41141;SDS011;26882;0.000;0.000;2022-09-09T12:31:54;7.30;;;5.60;;
41141;SDS011;26882;0.000;0.000;2022-09-09T12:34:35;8.80;;;6.40;;
41141;SDS011;26882;0.000;0.000;2022-09-09T12:37:13;9.30;;;6.10;;
41141;SDS011;26882;0.000;0.000;2022-09-09T12:39:47;8.90;;;6.20;;
41141;SDS011;26882;0.000;0.000;2022-09-09T12:42:21;7.50;;;6.20;;
41141;SDS011;26882;0.000;0.000;2022-09-09T12:44:57;7.30;;;6.00;;
41141;SDS011;26882;0.000;0.000;2022-09-09T12:47:36;8.00;;;6.40;;
41141;SDS011;26882;0.000;0.000;2022-09-09T12:50:20;7.90;;;6.50;;
41141;SDS011;26882;0.000;0.000;2022-09-09T12:52:52;9.60;;;7.10;;
41141;SDS011;26882;0.000;0.000;2022-09-09T12:55:27;8.40;;;6.90;;
41141;SDS011;26882;0.000;0.000;2022-09-09T12:58:00;8.60;;;6.10;;
41141;SDS011;26882;0.000;0.000;2022-09-09T13:00:34;8.70;;;6.80;;
41141;SDS011;26882;0.000;0.000;2022-09-09T13:03:18;8.00;;;6.40;;
41141;SDS011;26882;0.000;0.000;2022-09-09T13:05:51;8.40;;;6.50;;
41141;SDS011;26882;0.000;0.000;2022-09-09T13:08:22;8.00;;;6.50;;
41141;SDS011;26882;0.000;0.000;2022-09-09T13:10:57;8.60;;;6.90;;
41141;SDS011;26882;0.000;0.000;2022-09-09T13:13:34;7.80;;;6.50;;
41141;SDS011;26882;0.000;0.000;2022-09-09T13:16:17;8.50;;;6.60;;
41141;SDS011;26882;0.000;0.000;2022-09-09T13:18:48;9.10;;;6.60;;
41141;SDS011;26882;0.000;0.000;2022-09-09T13:21:36;8.60;;;7.10;;
41141;SDS011;26882;0.000;0.000;2022-09-09T13:24:26;8.80;;;7.40;;
41141;SDS011;26882;0.000;0.000;2022-09-09T13:26:59;9.60;;;7.00;;
41141;SDS011;26882;0.000;0.000;2022-09-09T13:29:33;10.20;;;6.60;;
41141;SDS011;26882;0.000;0.000;2022-09-09T13:32:17;11.80;;;7.50;;
41141;SDS011;26882;0.000;0.000;2022-09-09T13:34:53;7.50;;;6.50;;
41141;SDS011;26882;0.000;0.000;2022-09-09T13:37:28;9.20;;;7.20;;
41141;SDS011;26882;0.000;0.000;2022-09-09T13:40:05;9.20;;;6.40;;
41141;SDS011;26882;0.000;0.000;2022-09-09T13:42:41;9.10;;;7.10;;
41141;SDS011;26882;0.000;0.000;2022-09-09T13:45:20;9.30;;;7.30;;
41141;SDS011;26882;0.000;0.000;2022-09-09T13:47:51;10.10;;;7.50;;
41141;SDS011;26882;0.000;0.000;2022-09-09T13:50:28;10.10;;;7.50;;
41141;SDS011;26882;0.000;0.000;2022-09-09T13:53:00;8.80;;;7.20;;
41141;SDS011;26882;0.000;0.000;2022-09-09T13:55:31;8.70;;;7.70;;
41141;SDS011;26882;0.000;0.000;2022-09-09T13:58:03;10.90;;;8.30;;
41141;SDS011;26882;0.000;0.000;2022-09-09T14:00:35;11.60;;;8.30;;
41141;SDS011;26882;0.000;0.000;2022-09-09T14:03:08;11.40;;;7.90;;
41141;SDS011;26882;0.000;0.000;2022-09-09T14:08:11;10.50;;;8.70;;
41141;SDS011;26882;0.000;0.000;2022-09-09T14:10:50;11.70;;;8.50;;
41141;SDS011;26882;0.000;0.000;2022-09-09T14:13:21;10.80;;;8.90;;
41141;SDS011;26882;0.000;0.000;2022-09-09T14:15:56;11.00;;;8.60;;
41141;SDS011;26882;0.000;0.000;2022-09-09T14:18:26;10.90;;;7.90;;
41141;SDS011;26882;0.000;0.000;2022-09-09T14:20:57;11.60;;;8.60;;
41141;SDS011;26882;0.000;0.000;2022-09-09T14:23:27;11.60;;;9.00;;
41141;SDS011;26882;0.000;0.000;2022-09-09T14:25:59;11.70;;;9.20;;
41141;SDS011;26882;0.000;0.000;2022-09-09T14:28:30;12.30;;;9.60;;
41141;SDS011;26882;0.000;0.000;2022-09-09T14:31:02;11.80;;;9.40;;
41141;SDS011;26882;0.000;0.000;2022-09-09T14:33:33;10.80;;;9.00;;
41141;SDS011;26882;0.000;0.000;2022-09-09T14:36:05;11.10;;;9.10;;
41141;SDS011;26882;0.000;0.000;2022-09-09T14:38:39;12.00;;;9.60;;
41141;SDS011;26882;0.000;0.000;2022-09-09T14:41:14;12.40;;;9.30;;
41141;SDS011;26882;0.000;0.000;2022-09-09T14:43:46;11.20;;;9.30;;
41141;SDS011;26882;0.000;0.000;2022-09-09T14:46:20;12.20;;;9.20;;
41141;SDS011;26882;0.000;0.000;2022-09-09T14:48:51;12.10;;;9.30;;
41141;SDS011;26882;0.000;0.000;2022-09-09T14:51:23;12.60;;;9.50;;
41141;SDS011;26882;0.000;0.000;2022-09-09T14:53:55;10.80;;;9.20;;
41141;SDS011;26882;0.000;0.000;2022-09-09T14:56:29;12.70;;;9.40;;
41141;SDS011;26882;0.000;0.000;2022-09-09T14:59:01;12.70;;;9.20;;
41141;SDS011;26882;0.000;0.000;2022-09-09T15:01:32;13.00;;;9.00;;
41141;SDS011;26882;0.000;0.000;2022-09-09T15:04:04;11.40;;;9.00;;
41141;SDS011;26882;0.000;0.000;2022-09-09T15:06:40;11.80;;;9.20;;
41141;SDS011;26882;0.000;0.000;2022-09-09T15:09:18;12.40;;;9.10;;
41141;SDS011;26882;0.000;0.000;2022-09-09T15:11:50;11.70;;;8.90;;
41141;SDS011;26882;0.000;0.000;2022-09-09T15:14:21;14.30;;;9.80;;
41141;SDS011;26882;0.000;0.000;2022-09-09T15:16:51;13.00;;;9.20;;
41141;SDS011;26882;0.000;0.000;2022-09-09T15:19:22;12.40;;;9.70;;
41141;SDS011;26882;0.000;0.000;2022-09-09T15:21:53;11.40;;;9.00;;
41141;SDS011;26882;0.000;0.000;2022-09-09T15:24:24;12.00;;;9.80;;
41141;SDS011;26882;0.000;0.000;2022-09-09T15:26:55;11.50;;;9.70;;
41141;SDS011;26882;0.000;0.000;2022-09-09T15:29:27;14.80;;;9.80;;
41141;SDS011;26882;0.000;0.000;2022-09-09T15:31:58;13.50;;;9.70;;
41141;SDS011;26882;0.000;0.000;2022-09-09T15:34:28;11.90;;;9.50;;
41141;SDS011;26882;0.000;0.000;2022-09-09T15:36:59;14.20;;;11.00;;
41141;SDS011;26882;0.000;0.000;2022-09-09T15:39:33;14.10;;;10.80;;
41141;SDS011;26882;0.000;0.000;2022-09-09T15:42:05;12.80;;;10.60;;
41141;SDS011;26882;0.000;0.000;2022-09-09T15:44:43;13.70;;;10.60;;
41141;SDS011;26882;0.000;0.000;2022-09-09T15:47:14;14.30;;;11.20;;
41141;SDS011;26882;0.000;0.000;2022-09-09T15:49:45;13.10;;;10.70;;
41141;SDS011;26882;0.000;0.000;2022-09-09T15:52:16;13.70;;;10.80;;
41141;SDS011;26882;0.000;0.000;2022-09-09T15:54:47;13.50;;;10.10;;
41141;SDS011;26882;0.000;0.000;2022-09-09T15:57:18;12.70;;;10.40;;
41141;SDS011;26882;0.000;0.000;2022-09-09T15:59:48;13.10;;;10.90;;